Time;durP1;ratioP1;P1;durP2;ratioP2;P2;SDS_P1;SDS_P2;PMS_P1;PMS_P2;Temp;Humidity;BMP_temperature;BMP_pressure;BME280_temperature;BME280_humidity;BME280_pressure;Samples;Min_cycle;Max_cycle;Signal;HPM_P1;HPM_P2
2022/06/25 00:02:50;;;;;;;2.15;1.20;;;;;;;;;;8351017;28;20408;-59
2022/06/25 00:06:51;;;;;;;1.75;1.30;;;;;;;;;;8353082;28;20056;-59
2022/06/25 00:10:52;;;;;;;1.30;1.20;;;;;;;;;;8353935;28;20104;-59
2022/06/25 00:14:52;;;;;;;4.55;1.30;;;;;;;;;;8353037;28;20025;-59
2022/06/25 00:18:52;;;;;;;1.70;1.23;;;;;;;;;;8352443;28;20158;-59
2022/06/25 00:22:52;;;;;;;2.33;1.30;;;;;;;;;;8353615;28;20291;-60
2022/06/25 00:26:53;;;;;;;3.33;1.20;;;;;;;;;;8353571;28;20032;-60
2022/06/25 00:30:53;;;;;;;4.63;1.10;;;;;;;;;;8355409;28;20047;-59
2022/06/25 00:34:53;;;;;;;1.40;1.30;;;;;;;;;;8354727;28;20054;-59
2022/06/25 00:38:53;;;;;;;2.47;1.60;;;;;;;;;;8357295;28;20020;-59
2022/06/25 00:42:53;;;;;;;1.58;1.48;;;;;;;;;;8352114;28;20024;-59
2022/06/25 00:46:54;;;;;;;5.88;1.73;;;;;;;;;;8355365;28;20048;-59
2022/06/25 00:50:56;;;;;;;1.73;1.27;;;;;;;;;;8353982;28;20054;-59
2022/06/25 00:55:07;;;;;;;1.23;1.23;;;;;;;;;;8351907;28;20038;-59
2022/06/25 00:59:09;;;;;;;1.40;1.30;;;;;;;;;;8352820;28;20043;-59
2022/06/25 01:03:10;;;;;;;2.38;1.40;;;;;;;;;;8349193;28;20036;-59
2022/06/25 01:07:10;;;;;;;1.73;1.63;;;;;;;;;;8351229;28;20078;-59
2022/06/25 01:11:11;;;;;;;1.70;1.60;;;;;;;;;;8353832;28;20021;-59
2022/06/25 01:15:18;;;;;;;1.95;1.50;;;;;;;;;;8351693;28;20029;-60
2022/06/25 01:19:18;;;;;;;2.35;1.70;;;;;;;;;;8351624;28;20016;-59
2022/06/25 01:23:18;;;;;;;2.70;1.73;;;;;;;;;;8351806;28;20032;-60
2022/06/25 01:27:18;;;;;;;1.85;1.75;;;;;;;;;;8352445;28;20027;-59
2022/06/25 01:31:18;;;;;;;5.20;1.85;;;;;;;;;;8354304;28;20077;-60
2022/06/25 01:35:19;;;;;;;2.85;1.83;;;;;;;;;;8357000;28;20036;-59
2022/06/25 01:39:19;;;;;;;1.90;1.70;;;;;;;;;;8353331;28;20102;-59
2022/06/25 01:43:19;;;;;;;7.43;1.77;;;;;;;;;;8360357;28;20023;-60
2022/06/25 01:47:19;;;;;;;3.05;1.67;;;;;;;;;;8355439;28;20033;-59
2022/06/25 01:51:20;;;;;;;2.33;2.00;;;;;;;;;;8359745;28;20058;-59
2022/06/25 01:55:20;;;;;;;2.60;2.40;;;;;;;;;;8359861;28;20025;-59
2022/06/25 01:59:21;;;;;;;2.95;2.30;;;;;;;;;;8359664;28;20524;-59
2022/06/25 02:03:21;;;;;;;2.40;2.20;;;;;;;;;;8355859;28;20040;-59
2022/06/25 02:07:21;;;;;;;2.80;2.40;;;;;;;;;;8358895;28;20286;-59
2022/06/25 02:11:21;;;;;;;3.15;2.20;;;;;;;;;;8357868;28;20024;-59
2022/06/25 02:15:21;;;;;;;2.60;2.35;;;;;;;;;;8360680;28;20028;-59
2022/06/25 02:19:22;;;;;;;5.07;2.95;;;;;;;;;;8359050;28;20024;-59
2022/06/25 02:23:22;;;;;;;2.70;2.50;;;;;;;;;;8358949;28;20055;-60
2022/06/25 02:27:22;;;;;;;4.95;2.90;;;;;;;;;;8358769;28;20029;-60
2022/06/25 02:31:23;;;;;;;3.20;2.75;;;;;;;;;;8357575;28;20611;-59
2022/06/25 02:35:23;;;;;;;5.28;2.75;;;;;;;;;;8358281;28;20131;-60
2022/06/25 02:39:24;;;;;;;3.97;2.67;;;;;;;;;;8355089;28;20032;-59
2022/06/25 02:43:24;;;;;;;3.50;2.87;;;;;;;;;;8357255;28;20079;-60
2022/06/25 02:47:24;;;;;;;3.30;2.72;;;;;;;;;;8358651;28;20290;-60
2022/06/25 02:51:24;;;;;;;4.03;2.45;;;;;;;;;;8359441;28;20020;-59
2022/06/25 02:59:46;;;;;;;3.13;2.30;;;;;;;;;;8358751;28;20131;-59
2022/06/25 03:03:46;;;;;;;2.40;2.20;;;;;;;;;;8356410;28;20577;-60
2022/06/25 03:07:47;;;;;;;3.67;2.80;;;;;;;;;;8359182;28;20044;-60
2022/06/25 03:11:47;;;;;;;3.30;3.00;;;;;;;;;;8358297;28;20021;-60
2022/06/25 03:15:47;;;;;;;5.10;2.70;;;;;;;;;;8357283;28;20044;-60
2022/06/25 03:19:47;;;;;;;3.00;2.80;;;;;;;;;;8357263;28;20267;-60
2022/06/25 03:23:47;;;;;;;2.90;2.70;;;;;;;;;;8349178;28;20052;-59
2022/06/25 03:27:48;;;;;;;4.75;2.97;;;;;;;;;;8356005;28;20112;-60
2022/06/25 03:31:48;;;;;;;5.03;3.37;;;;;;;;;;8356581;28;20041;-59
2022/06/25 03:35:48;;;;;;;3.80;2.92;;;;;;;;;;8358205;28;20056;-60
2022/06/25 03:39:49;;;;;;;3.92;2.90;;;;;;;;;;8354533;28;20117;-59
2022/06/25 03:43:49;;;;;;;3.58;3.17;;;;;;;;;;8356112;28;20029;-59
2022/06/25 03:47:52;;;;;;;5.23;3.07;;;;;;;;;;8355958;28;20044;-59
2022/06/25 03:51:53;;;;;;;4.82;3.22;;;;;;;;;;8356173;28;20325;-60
2022/06/25 03:55:53;;;;;;;3.80;2.90;;;;;;;;;;8356275;28;20025;-59
2022/06/25 03:59:53;;;;;;;3.10;2.80;;;;;;;;;;8353128;28;20025;-59
2022/06/25 04:03:53;;;;;;;3.22;3.03;;;;;;;;;;8353414;28;20028;-59
2022/06/25 04:07:53;;;;;;;3.75;3.20;;;;;;;;;;8353393;28;20118;-59
2022/06/25 04:11:53;;;;;;;3.40;3.13;;;;;;;;;;8354982;28;20024;-59
2022/06/25 04:15:54;;;;;;;5.63;3.10;;;;;;;;;;8353100;28;20155;-59
2022/06/25 04:19:54;;;;;;;5.10;3.20;;;;;;;;;;8355107;28;20108;-59
2022/06/25 04:23:54;;;;;;;3.85;2.63;;;;;;;;;;8354067;28;21017;-60
2022/06/25 04:32:13;;;;;;;3.00;2.80;;;;;;;;;;8353463;28;20764;-62
2022/06/25 04:36:14;;;;;;;2.70;2.50;;;;;;;;;;8353451;28;20033;-59
2022/06/25 04:40:14;;;;;;;3.00;2.50;;;;;;;;;;8356163;28;20039;-60
2022/06/25 04:44:15;;;;;;;4.50;2.63;;;;;;;;;;8352684;28;20029;-59
2022/06/25 04:48:16;;;;;;;2.70;2.50;;;;;;;;;;8354002;28;20047;-59
2022/06/25 04:52:16;;;;;;;4.88;2.63;;;;;;;;;;8353213;28;20024;-59
2022/06/25 04:56:16;;;;;;;4.87;2.50;;;;;;;;;;8353211;28;20437;-60
2022/06/25 05:00:16;;;;;;;6.78;2.50;;;;;;;;;;8350348;28;20583;-59
2022/06/25 05:04:16;;;;;;;3.27;2.30;;;;;;;;;;8352065;28;20048;-59
2022/06/25 05:08:17;;;;;;;3.92;2.53;;;;;;;;;;8346282;28;20031;-61
2022/06/25 05:13:11;;;;;;;3.83;2.90;;;;;;;;;;8350648;28;20086;-60
2022/06/25 05:16:37;;;;;;;2.88;2.67;;;;;;;;;;8349220;28;20036;-59
2022/06/25 05:20:41;;;;;;;4.55;2.80;;;;;;;;;;8349216;28;20100;-61
2022/06/25 05:24:41;;;;;;;5.30;2.80;;;;;;;;;;8349950;28;20029;-60
2022/06/25 05:28:43;;;;;;;2.30;2.10;;;;;;;;;;8347856;28;20162;-59
2022/06/25 05:32:43;;;;;;;2.97;2.53;;;;;;;;;;8350721;28;20592;-60
2022/06/25 05:36:45;;;;;;;5.80;2.70;;;;;;;;;;8352400;28;20078;-60
2022/06/25 05:40:46;;;;;;;3.50;3.05;;;;;;;;;;8352845;28;20024;-60
2022/06/25 05:44:47;;;;;;;5.13;3.60;;;;;;;;;;8349868;28;20143;-60
2022/06/25 05:48:47;;;;;;;3.95;3.65;;;;;;;;;;8350698;28;20041;-60
2022/06/25 05:52:48;;;;;;;5.20;3.40;;;;;;;;;;8349987;28;20017;-60
2022/06/25 05:56:48;;;;;;;3.67;3.13;;;;;;;;;;8353623;28;20446;-60
2022/06/25 06:00:48;;;;;;;5.15;3.30;;;;;;;;;;8346249;28;21207;-60
2022/06/25 06:04:48;;;;;;;8.23;2.75;;;;;;;;;;8349793;28;20457;-60
2022/06/25 06:08:48;;;;;;;3.38;2.60;;;;;;;;;;8349647;28;20409;-60
2022/06/25 06:12:49;;;;;;;4.33;2.70;;;;;;;;;;8350732;28;20966;-60
2022/06/25 06:16:49;;;;;;;2.38;2.17;;;;;;;;;;8353859;28;20275;-60
2022/06/25 06:20:49;;;;;;;2.78;2.58;;;;;;;;;;8355804;28;20020;-60
2022/06/25 06:24:49;;;;;;;5.10;2.25;;;;;;;;;;8354969;28;20416;-60
2022/06/25 06:28:49;;;;;;;4.30;2.95;;;;;;;;;;8353891;28;20031;-60
2022/06/25 06:32:49;;;;;;;3.25;2.10;;;;;;;;;;8349638;28;20605;-60
2022/06/25 06:36:50;;;;;;;2.40;2.20;;;;;;;;;;8349493;28;20059;-60
2022/06/25 06:40:50;;;;;;;3.17;2.35;;;;;;;;;;8347337;28;20246;-60
2022/06/25 06:44:50;;;;;;;3.33;2.50;;;;;;;;;;8350308;28;20025;-60
2022/06/25 06:48:50;;;;;;;4.43;2.50;;;;;;;;;;8348267;28;20037;-59
2022/06/25 06:52:51;;;;;;;2.50;2.30;;;;;;;;;;8349344;28;20021;-59
2022/06/25 06:56:53;;;;;;;6.40;2.40;;;;;;;;;;8350571;28;20379;-59
2022/06/25 07:00:53;;;;;;;4.10;2.30;;;;;;;;;;8347969;28;20041;-60
2022/06/25 07:04:53;;;;;;;3.35;2.15;;;;;;;;;;8351571;28;20690;-59
2022/06/25 07:08:53;;;;;;;5.07;2.17;;;;;;;;;;8343422;28;20032;-60
2022/06/25 07:12:53;;;;;;;2.58;1.88;;;;;;;;;;8347279;28;20429;-59
2022/06/25 07:16:54;;;;;;;3.67;1.65;;;;;;;;;;8344255;28;20044;-59
2022/06/25 07:20:54;;;;;;;2.10;1.80;;;;;;;;;;8350837;28;20075;-59
2022/06/25 07:24:54;;;;;;;4.30;1.85;;;;;;;;;;8350973;28;20047;-59
2022/06/25 07:28:55;;;;;;;1.75;1.35;;;;;;;;;;8352529;28;20035;-59
2022/06/25 07:32:55;;;;;;;2.20;1.60;;;;;;;;;;8349463;28;20029;-60
2022/06/25 07:36:55;;;;;;;2.35;1.33;;;;;;;;;;8350342;28;20820;-59
2022/06/25 07:40:55;;;;;;;1.67;1.40;;;;;;;;;;8350263;28;20024;-59
2022/06/25 07:44:55;;;;;;;2.30;1.30;;;;;;;;;;8354057;28;21094;-60
2022/06/25 07:48:55;;;;;;;4.35;1.40;;;;;;;;;;8355846;28;20048;-59
2022/06/25 07:52:56;;;;;;;3.50;1.17;;;;;;;;;;8356415;28;20030;-60
2022/06/25 07:56:57;;;;;;;4.30;1.33;;;;;;;;;;8354186;28;20127;-60
2022/06/25 08:00:57;;;;;;;1.75;1.33;;;;;;;;;;8351423;28;20047;-59
2022/06/25 08:04:57;;;;;;;1.30;1.08;;;;;;;;;;8354199;28;20143;-59
2022/06/25 08:08:58;;;;;;;2.63;1.20;;;;;;;;;;8354866;28;20028;-59
2022/06/25 08:12:58;;;;;;;1.50;1.10;;;;;;;;;;8354375;28;20111;-59
2022/06/25 08:16:58;;;;;;;3.83;1.30;;;;;;;;;;8351994;28;20105;-60
2022/06/25 08:20:59;;;;;;;1.20;1.10;;;;;;;;;;8353430;28;20608;-59
2022/06/25 08:24:59;;;;;;;2.88;1.10;;;;;;;;;;8356021;28;20028;-59
2022/06/25 08:28:59;;;;;;;3.40;1.00;;;;;;;;;;8355705;28;20024;-59
2022/06/25 08:33:00;;;;;;;2.92;1.13;;;;;;;;;;8351952;28;20317;-59
2022/06/25 08:37:00;;;;;;;2.05;0.90;;;;;;;;;;8350783;28;20074;-59
2022/06/25 08:41:00;;;;;;;9.18;1.45;;;;;;;;;;8354920;28;20509;-59
2022/06/25 08:45:01;;;;;;;1.23;1.00;;;;;;;;;;8353319;28;20024;-59
2022/06/25 08:49:01;;;;;;;2.97;1.05;;;;;;;;;;8351046;28;20029;-59
2022/06/25 08:53:01;;;;;;;1.70;0.93;;;;;;;;;;8352511;28;20142;-59
2022/06/25 08:57:01;;;;;;;1.58;1.08;;;;;;;;;;8350778;28;20116;-59
2022/06/25 09:01:02;;;;;;;3.23;0.97;;;;;;;;;;8353507;28;20037;-59
2022/06/25 09:05:02;;;;;;;1.25;0.90;;;;;;;;;;8356587;28;20437;-60
2022/06/25 09:09:16;;;;;;;1.45;1.00;;;;;;;;;;8353993;28;20051;-59
2022/06/25 09:13:19;;;;;;;1.42;0.98;;;;;;;;;;8352429;28;20016;-59
2022/06/25 09:17:20;;;;;;;1.00;0.88;;;;;;;;;;8353511;28;20376;-59
2022/06/25 09:21:20;;;;;;;3.13;0.98;;;;;;;;;;8353640;28;20129;-59
2022/06/25 09:25:24;;;;;;;2.47;0.98;;;;;;;;;;8354243;28;20665;-59
2022/06/25 09:29:35;;;;;;;0.98;0.88;;;;;;;;;;8349595;28;20903;-59
2022/06/25 09:33:36;;;;;;;2.17;1.10;;;;;;;;;;8349450;28;20082;-59
2022/06/25 09:37:37;;;;;;;4.47;1.20;;;;;;;;;;8352884;28;20086;-59
2022/06/25 09:41:47;;;;;;;0.80;0.80;;;;;;;;;;8352737;28;20075;-59
2022/06/25 09:45:48;;;;;;;2.13;1.00;;;;;;;;;;8353852;28;20039;-59
2022/06/25 09:49:49;;;;;;;1.30;0.80;;;;;;;;;;8356029;28;20554;-59
2022/06/25 09:53:50;;;;;;;0.98;0.90;;;;;;;;;;8358434;28;20047;-59
2022/06/25 09:57:51;;;;;;;1.45;1.10;;;;;;;;;;8359270;28;20775;-59
2022/06/25 10:01:52;;;;;;;1.70;1.00;;;;;;;;;;8359552;28;20040;-59
2022/06/25 10:05:53;;;;;;;3.65;1.02;;;;;;;;;;8358306;28;20033;-59
2022/06/25 10:09:53;;;;;;;1.35;1.00;;;;;;;;;;8359212;28;20035;-59
2022/06/25 10:13:54;;;;;;;1.87;1.00;;;;;;;;;;8357923;28;20552;-59
2022/06/25 10:17:54;;;;;;;2.83;1.30;;;;;;;;;;8358053;28;20051;-58
2022/06/25 10:21:55;;;;;;;2.45;0.90;;;;;;;;;;8360334;28;20033;-58
2022/06/25 10:25:55;;;;;;;1.75;1.10;;;;;;;;;;8356736;28;20063;-59
2022/06/25 10:29:57;;;;;;;4.03;1.00;;;;;;;;;;8359385;28;20028;-59
2022/06/25 10:34:04;;;;;;;4.90;1.00;;;;;;;;;;8355777;28;20463;-59
2022/06/25 10:38:09;;;;;;;1.67;1.00;;;;;;;;;;8357101;28;20055;-59
2022/06/25 10:46:33;;;;;;;1.23;0.95;;;;;;;;;;8354347;28;20044;-59
2022/06/25 10:50:35;;;;;;;1.60;0.93;;;;;;;;;;8355705;28;20531;-59
2022/06/25 10:54:36;;;;;;;1.77;0.90;;;;;;;;;;8352052;28;20044;-59
2022/06/25 10:58:43;;;;;;;1.80;1.00;;;;;;;;;;8353957;28;20021;-59
2022/06/25 11:02:52;;;;;;;4.07;1.13;;;;;;;;;;8352439;28;20047;-59
2022/06/25 11:06:52;;;;;;;1.35;1.02;;;;;;;;;;8354821;28;20987;-59
2022/06/25 11:10:53;;;;;;;2.05;1.00;;;;;;;;;;8354860;28;20464;-59
2022/06/25 11:15:00;;;;;;;3.67;1.08;;;;;;;;;;8356950;28;21179;-59
2022/06/25 11:19:00;;;;;;;2.28;1.10;;;;;;;;;;8356456;28;20044;-59
2022/06/25 11:23:01;;;;;;;5.30;1.00;;;;;;;;;;8355255;28;20029;-59
2022/06/25 11:31:22;;;;;;;1.13;0.98;;;;;;;;;;8354439;28;20067;-59
2022/06/25 11:35:22;;;;;;;1.13;1.02;;;;;;;;;;8355515;28;20431;-59
2022/06/25 11:39:23;;;;;;;2.92;1.00;;;;;;;;;;8354381;28;20074;-59
2022/06/25 11:43:26;;;;;;;2.70;1.27;;;;;;;;;;8354384;28;20170;-58
2022/06/25 11:47:27;;;;;;;3.33;1.00;;;;;;;;;;8353142;28;20114;-59
2022/06/25 11:51:27;;;;;;;2.42;0.98;;;;;;;;;;8354994;28;20111;-59
2022/06/25 11:55:28;;;;;;;1.33;1.02;;;;;;;;;;8353661;28;21073;-59
2022/06/25 11:59:29;;;;;;;3.67;1.20;;;;;;;;;;8353710;28;20115;-59
2022/06/25 12:03:31;;;;;;;1.92;1.00;;;;;;;;;;8351332;28;20036;-59
2022/06/25 12:07:32;;;;;;;1.42;1.00;;;;;;;;;;8351858;28;20027;-60
2022/06/25 12:11:32;;;;;;;2.08;1.10;;;;;;;;;;8353234;28;20020;-59
2022/06/25 12:15:33;;;;;;;1.53;0.90;;;;;;;;;;8351411;28;20040;-59
2022/06/25 12:19:43;;;;;;;2.58;1.00;;;;;;;;;;8354292;28;20903;-60
2022/06/25 12:23:49;;;;;;;1.45;1.08;;;;;;;;;;8353186;28;20604;-59
2022/06/25 12:27:50;;;;;;;1.70;1.10;;;;;;;;;;8352729;28;20135;-59
2022/06/25 12:31:55;;;;;;;3.38;1.10;;;;;;;;;;8350646;28;20829;-59
2022/06/25 12:35:55;;;;;;;1.13;1.05;;;;;;;;;;8354153;28;20542;-60
2022/06/25 12:39:59;;;;;;;1.58;1.13;;;;;;;;;;8353260;28;20051;-60
2022/06/25 12:43:59;;;;;;;2.85;1.00;;;;;;;;;;8353434;28;20119;-59
2022/06/25 12:48:00;;;;;;;1.60;1.10;;;;;;;;;;8352016;28;20094;-59
2022/06/25 12:52:00;;;;;;;1.48;0.90;;;;;;;;;;8352410;28;20115;-59
2022/06/25 12:56:01;;;;;;;2.00;1.30;;;;;;;;;;8353814;28;20084;-59
2022/06/25 13:00:04;;;;;;;2.92;1.13;;;;;;;;;;8351107;28;20821;-59
2022/06/25 13:04:04;;;;;;;2.05;1.08;;;;;;;;;;8353352;28;20504;-59
2022/06/25 13:08:05;;;;;;;1.75;1.13;;;;;;;;;;8352361;28;20090;-59
2022/06/25 13:12:05;;;;;;;2.07;1.10;;;;;;;;;;8350450;28;20027;-59
2022/06/25 13:16:06;;;;;;;2.63;0.80;;;;;;;;;;8348642;28;20036;-59
2022/06/25 13:20:06;;;;;;;0.90;0.90;;;;;;;;;;8353388;28;20024;-59
2022/06/25 13:24:07;;;;;;;1.63;1.00;;;;;;;;;;8351487;28;20139;-59
2022/06/25 13:28:07;;;;;;;1.30;1.00;;;;;;;;;;8351432;28;20035;-59
2022/06/25 13:32:07;;;;;;;1.67;1.00;;;;;;;;;;8350165;28;20347;-59
2022/06/25 13:36:08;;;;;;;1.67;1.10;;;;;;;;;;8350034;28;20033;-59
2022/06/25 13:40:09;;;;;;;1.33;0.90;;;;;;;;;;8350274;28;20106;-59
2022/06/25 13:44:09;;;;;;;4.35;1.00;;;;;;;;;;8351524;28;20024;-59
2022/06/25 13:48:10;;;;;;;4.03;1.10;;;;;;;;;;8351977;28;20033;-59
2022/06/25 13:52:10;;;;;;;3.10;1.00;;;;;;;;;;8349264;28;20055;-59
2022/06/25 13:56:10;;;;;;;0.88;0.85;;;;;;;;;;8348084;28;20063;-59
2022/06/25 14:00:11;;;;;;;1.92;0.90;;;;;;;;;;8346121;28;20079;-59
2022/06/25 14:04:11;;;;;;;2.20;0.90;;;;;;;;;;8352715;28;20246;-59
2022/06/25 14:08:11;;;;;;;3.25;1.05;;;;;;;;;;8343048;28;20831;-59
2022/06/25 14:12:11;;;;;;;1.20;1.00;;;;;;;;;;8348382;28;20445;-60
2022/06/25 14:16:12;;;;;;;0.77;0.77;;;;;;;;;;8344684;28;20040;-60
2022/06/25 14:20:12;;;;;;;2.53;1.20;;;;;;;;;;8347905;28;20021;-60
2022/06/25 14:24:12;;;;;;;1.77;1.00;;;;;;;;;;8347763;28;20028;-60
2022/06/25 14:28:13;;;;;;;1.27;0.80;;;;;;;;;;8348441;28;20021;-60
2022/06/25 14:32:13;;;;;;;1.60;0.90;;;;;;;;;;8346591;28;20039;-60
2022/06/25 14:44:41;;;;;;;1.13;0.90;;;;;;;;;;8351819;28;20255;-60
2022/06/25 14:48:41;;;;;;;1.30;0.97;;;;;;;;;;8351233;28;20040;-60
2022/06/25 14:52:42;;;;;;;2.33;1.00;;;;;;;;;;8352888;28;20012;-60
2022/06/25 14:56:42;;;;;;;2.47;1.00;;;;;;;;;;8353601;28;20027;-60
2022/06/25 15:00:42;;;;;;;1.70;0.90;;;;;;;;;;8351134;28;20707;-60
2022/06/25 15:04:42;;;;;;;1.17;0.90;;;;;;;;;;8351549;28;20025;-60
2022/06/25 15:08:43;;;;;;;2.40;1.10;;;;;;;;;;8355067;28;20077;-60
2022/06/25 15:12:43;;;;;;;2.28;0.88;;;;;;;;;;8354454;28;20577;-60
2022/06/25 15:16:43;;;;;;;0.80;0.80;;;;;;;;;;8355593;28;20036;-60
2022/06/25 15:20:44;;;;;;;3.05;1.00;;;;;;;;;;8352286;28;20024;-60
2022/06/25 15:24:44;;;;;;;1.13;0.80;;;;;;;;;;8350512;28;20481;-60
2022/06/25 15:28:44;;;;;;;1.50;0.90;;;;;;;;;;8349276;28;20851;-60
2022/06/25 15:32:44;;;;;;;0.98;0.60;;;;;;;;;;8344580;28;20028;-60
2022/06/25 15:36:45;;;;;;;1.45;0.80;;;;;;;;;;8344726;28;20025;-60
2022/06/25 15:40:45;;;;;;;0.95;0.80;;;;;;;;;;8346197;28;20020;-60
2022/06/25 15:44:45;;;;;;;0.90;0.90;;;;;;;;;;8345198;28;20411;-60
2022/06/25 15:48:46;;;;;;;1.27;0.82;;;;;;;;;;8346313;28;20137;-60
2022/06/25 15:52:46;;;;;;;3.13;0.82;;;;;;;;;;8344382;28;20031;-60
2022/06/25 15:56:46;;;;;;;2.00;0.93;;;;;;;;;;8343664;28;20036;-60
2022/06/25 16:00:46;;;;;;;3.67;0.83;;;;;;;;;;8342088;28;20517;-61
2022/06/25 16:04:48;;;;;;;1.63;0.82;;;;;;;;;;8345861;28;20024;-60
2022/06/25 16:08:48;;;;;;;3.70;1.10;;;;;;;;;;8343468;28;20052;-60
2022/06/25 16:12:48;;;;;;;5.03;1.40;;;;;;;;;;8344063;28;20029;-60
2022/06/25 16:16:49;;;;;;;0.87;0.77;;;;;;;;;;8341891;28;20332;-60
2022/06/25 16:20:49;;;;;;;1.73;0.80;;;;;;;;;;8341324;28;20282;-60
2022/06/25 16:24:50;;;;;;;0.80;0.77;;;;;;;;;;8343513;28;20068;-60
2022/06/25 16:28:50;;;;;;;1.10;0.98;;;;;;;;;;8341747;28;20418;-60
2022/06/25 16:32:50;;;;;;;0.70;0.70;;;;;;;;;;8341949;28;20035;-60
2022/06/25 16:36:51;;;;;;;2.55;0.80;;;;;;;;;;8344763;28;20284;-60
2022/06/25 16:40:51;;;;;;;0.60;0.60;;;;;;;;;;8340977;28;20029;-60
2022/06/25 16:44:51;;;;;;;0.82;0.80;;;;;;;;;;8342382;28;20035;-61
2022/06/25 16:48:52;;;;;;;2.50;2.30;;;;;;;;;;8346133;28;20044;-60
2022/06/25 16:52:53;;;;;;;1.80;1.40;;;;;;;;;;8350587;28;20462;-60
2022/06/25 16:56:54;;;;;;;1.30;1.20;;;;;;;;;;8352223;28;20124;-60
2022/06/25 17:00:54;;;;;;;1.77;0.90;;;;;;;;;;8350749;28;20072;-60
2022/06/25 17:04:55;;;;;;;1.13;1.03;;;;;;;;;;8360740;28;20028;-60
2022/06/25 17:08:55;;;;;;;2.85;1.55;;;;;;;;;;8349611;28;20025;-60
2022/06/25 17:12:56;;;;;;;1.65;1.00;;;;;;;;;;8351364;28;20032;-59
2022/06/25 17:16:56;;;;;;;1.50;1.40;;;;;;;;;;8348071;28;20121;-60
2022/06/25 17:20:56;;;;;;;3.65;2.80;;;;;;;;;;8350876;28;20036;-60
2022/06/25 17:24:56;;;;;;;3.60;3.00;;;;;;;;;;8349516;28;20032;-60
2022/06/25 17:29:01;;;;;;;1.95;1.70;;;;;;;;;;8351323;28;20025;-60
2022/06/25 17:33:02;;;;;;;6.07;5.28;;;;;;;;;;8349914;28;20067;-60
2022/06/25 17:37:02;;;;;;;2.30;2.10;;;;;;;;;;8350047;28;20028;-59
2022/06/25 17:41:02;;;;;;;1.70;1.60;;;;;;;;;;8348565;28;20028;-64
2022/06/25 17:45:03;;;;;;;1.73;1.40;;;;;;;;;;8349897;28;20027;-60
2022/06/25 17:49:03;;;;;;;1.20;1.10;;;;;;;;;;8351564;28;20793;-60
2022/06/25 17:53:03;;;;;;;1.90;1.80;;;;;;;;;;8350218;28;20043;-59
2022/06/25 17:57:04;;;;;;;1.77;1.50;;;;;;;;;;8349075;28;20035;-60
2022/06/25 18:01:05;;;;;;;1.63;1.52;;;;;;;;;;8349836;28;20043;-60
2022/06/25 18:05:05;;;;;;;2.10;1.90;;;;;;;;;;8351733;28;20032;-59
2022/06/25 18:09:06;;;;;;;2.00;1.50;;;;;;;;;;8349221;28;20034;-60
2022/06/25 18:13:06;;;;;;;3.10;1.27;;;;;;;;;;8356277;28;20020;-60
2022/06/25 18:17:06;;;;;;;1.42;1.00;;;;;;;;;;8354768;28;20044;-61
2022/06/25 18:21:06;;;;;;;2.30;1.00;;;;;;;;;;8355945;28;20056;-59
2022/06/25 18:25:07;;;;;;;1.42;1.10;;;;;;;;;;8356522;28;20290;-60
2022/06/25 18:29:07;;;;;;;1.17;1.08;;;;;;;;;;8356986;28;20048;-59
2022/06/25 18:33:07;;;;;;;2.72;1.00;;;;;;;;;;8354799;28;20036;-59
2022/06/25 18:37:08;;;;;;;1.25;1.10;;;;;;;;;;8355797;28;20027;-59
2022/06/25 18:41:08;;;;;;;2.95;1.02;;;;;;;;;;8354296;28;20147;-59
2022/06/25 18:45:09;;;;;;;2.07;1.20;;;;;;;;;;8355675;28;20852;-60
2022/06/25 18:49:09;;;;;;;2.08;1.30;;;;;;;;;;8356156;28;20413;-60
2022/06/25 18:53:09;;;;;;;3.45;1.27;;;;;;;;;;8354310;28;20656;-60
2022/06/25 18:57:10;;;;;;;1.58;1.33;;;;;;;;;;8355426;28;20017;-60
2022/06/25 19:01:10;;;;;;;1.80;1.20;;;;;;;;;;8355098;28;20036;-60
2022/06/25 19:05:10;;;;;;;1.17;1.00;;;;;;;;;;8356884;28;20119;-60
2022/06/25 19:09:10;;;;;;;1.25;1.15;;;;;;;;;;8354740;28;20028;-61
2022/06/25 19:13:11;;;;;;;1.43;1.10;;;;;;;;;;8352113;28;20082;-60
2022/06/25 19:17:11;;;;;;;1.10;1.03;;;;;;;;;;8353776;28;20033;-60
2022/06/25 19:21:11;;;;;;;0.90;0.90;;;;;;;;;;8355045;28;20021;-61
2022/06/25 19:25:12;;;;;;;1.88;1.00;;;;;;;;;;8352595;28;20297;-60
2022/06/25 19:29:12;;;;;;;1.70;1.20;;;;;;;;;;8355565;28;20381;-60
2022/06/25 19:33:13;;;;;;;3.10;1.10;;;;;;;;;;8352077;28;20123;-60
2022/06/25 19:37:13;;;;;;;1.20;1.10;;;;;;;;;;8353823;28;20030;-60
2022/06/25 19:41:13;;;;;;;1.00;1.00;;;;;;;;;;8352670;28;20493;-61
2022/06/25 19:45:15;;;;;;;1.08;1.00;;;;;;;;;;8352965;28;20270;-61
2022/06/25 19:49:15;;;;;;;1.88;1.13;;;;;;;;;;8351788;28;20075;-60
2022/06/25 19:53:15;;;;;;;1.17;1.00;;;;;;;;;;8351498;28;20009;-61
2022/06/25 19:57:16;;;;;;;1.50;1.30;;;;;;;;;;8351468;28;20020;-61
2022/06/25 20:01:16;;;;;;;1.08;1.05;;;;;;;;;;8350995;28;20052;-61
2022/06/25 20:05:16;;;;;;;2.70;1.50;;;;;;;;;;8354311;28;20107;-60
2022/06/25 20:09:17;;;;;;;1.60;1.50;;;;;;;;;;8351773;28;20318;-62
2022/06/25 20:13:17;;;;;;;1.40;1.30;;;;;;;;;;8353330;28;20020;-61
2022/06/25 20:17:17;;;;;;;3.33;1.65;;;;;;;;;;8352304;28;20090;-61
2022/06/25 20:21:18;;;;;;;1.33;1.20;;;;;;;;;;8351137;28;20897;-61
2022/06/25 20:25:18;;;;;;;2.58;1.40;;;;;;;;;;8350097;28;20028;-60
2022/06/25 20:29:19;;;;;;;3.30;1.10;;;;;;;;;;8353290;28;20027;-60
2022/06/25 20:33:19;;;;;;;1.30;1.20;;;;;;;;;;8347999;28;20025;-61
2022/06/25 20:37:19;;;;;;;2.20;1.20;;;;;;;;;;8352380;28;21180;-61
2022/06/25 20:41:19;;;;;;;2.03;1.23;;;;;;;;;;8350159;28;20029;-61
2022/06/25 20:45:20;;;;;;;1.23;1.13;;;;;;;;;;8348763;28;20029;-61
2022/06/25 20:49:20;;;;;;;1.30;1.20;;;;;;;;;;8346789;28;20024;-60
2022/06/25 20:53:21;;;;;;;2.45;1.10;;;;;;;;;;8347794;28;20579;-60
2022/06/25 20:57:21;;;;;;;1.58;1.15;;;;;;;;;;8349932;28;20115;-60
2022/06/25 21:01:21;;;;;;;2.20;1.20;;;;;;;;;;8349997;28;20036;-60
2022/06/25 21:09:41;;;;;;;4.03;1.20;;;;;;;;;;8348270;28;20023;-60
2022/06/25 21:13:41;;;;;;;1.80;1.10;;;;;;;;;;8349794;28;20641;-61
2022/06/25 21:17:41;;;;;;;1.63;1.00;;;;;;;;;;8349085;28;20661;-60
2022/06/25 21:21:41;;;;;;;2.15;1.00;;;;;;;;;;8351084;28;20665;-61
2022/06/25 21:25:42;;;;;;;2.35;1.20;;;;;;;;;;8347119;28;20686;-61
2022/06/25 21:29:42;;;;;;;1.10;1.10;;;;;;;;;;8347201;28;20021;-61
2022/06/25 21:33:42;;;;;;;1.55;1.20;;;;;;;;;;8346505;28;20181;-61
2022/06/25 21:37:43;;;;;;;5.07;1.00;;;;;;;;;;8349454;28;20548;-62
2022/06/25 21:41:43;;;;;;;1.33;1.00;;;;;;;;;;8347077;28;20123;-61
2022/06/25 21:45:43;;;;;;;2.50;1.08;;;;;;;;;;8351423;28;20363;-61
2022/06/25 21:49:43;;;;;;;1.52;1.10;;;;;;;;;;8353987;28;20028;-61
2022/06/25 21:53:44;;;;;;;1.30;1.13;;;;;;;;;;8353696;28;20016;-60
2022/06/25 21:57:44;;;;;;;1.25;1.00;;;;;;;;;;8353328;28;20498;-61
2022/06/25 22:01:44;;;;;;;2.00;1.30;;;;;;;;;;8351522;28;20133;-60
2022/06/25 22:05:44;;;;;;;2.17;1.15;;;;;;;;;;8353424;28;20176;-60
2022/06/25 22:09:44;;;;;;;2.47;1.38;;;;;;;;;;8353122;28;20085;-61
2022/06/25 22:13:45;;;;;;;1.30;1.20;;;;;;;;;;8356903;28;20012;-60
2022/06/25 22:17:46;;;;;;;1.70;1.30;;;;;;;;;;8355300;28;21016;-61
2022/06/25 22:21:47;;;;;;;1.42;1.27;;;;;;;;;;8354146;28;20658;-61
2022/06/25 22:25:48;;;;;;;1.65;1.20;;;;;;;;;;8353220;28;20024;-61
2022/06/25 22:29:48;;;;;;;1.13;1.08;;;;;;;;;;8352952;28;20302;-61
2022/06/25 22:33:48;;;;;;;1.02;1.00;;;;;;;;;;8353500;28;20619;-60
2022/06/25 22:37:49;;;;;;;1.73;1.10;;;;;;;;;;8353596;28;20021;-60
2022/06/25 22:41:50;;;;;;;4.43;1.30;;;;;;;;;;8351043;28;20556;-60
2022/06/25 22:45:51;;;;;;;5.05;1.50;;;;;;;;;;8352727;28;20109;-61
2022/06/25 22:49:51;;;;;;;8.05;1.23;;;;;;;;;;8352221;28;20020;-60
2022/06/25 22:53:51;;;;;;;1.48;0.93;;;;;;;;;;8349215;28;20035;-61
2022/06/25 22:57:52;;;;;;;1.92;0.80;;;;;;;;;;8351291;28;20033;-60
2022/06/25 23:01:53;;;;;;;2.38;0.80;;;;;;;;;;8350457;28;20044;-60
2022/06/25 23:05:53;;;;;;;1.10;0.70;;;;;;;;;;8353232;28;20374;-60
2022/06/25 23:09:53;;;;;;;2.10;0.80;;;;;;;;;;8352639;28;20052;-60
2022/06/25 23:13:54;;;;;;;0.82;0.70;;;;;;;;;;8346800;28;20024;-60
2022/06/25 23:17:54;;;;;;;1.95;0.82;;;;;;;;;;8350297;28;20042;-60
2022/06/25 23:21:55;;;;;;;0.75;0.70;;;;;;;;;;8352740;28;20139;-60
2022/06/25 23:25:56;;;;;;;1.42;0.70;;;;;;;;;;8352363;28;20226;-60
2022/06/25 23:29:56;;;;;;;2.63;0.70;;;;;;;;;;8353506;28;20056;-60
2022/06/25 23:33:57;;;;;;;3.60;0.60;;;;;;;;;;8351917;28;20067;-61
2022/06/25 23:37:57;;;;;;;0.65;0.65;;;;;;;;;;8351112;28;20496;-60
2022/06/25 23:41:58;;;;;;;1.75;0.70;;;;;;;;;;8351764;28;20043;-60
2022/06/25 23:45:58;;;;;;;0.60;0.60;;;;;;;;;;8352524;28;20124;-60
2022/06/25 23:49:58;;;;;;;1.27;0.70;;;;;;;;;;8349546;28;20060;-60
2022/06/25 23:53:59;;;;;;;0.85;0.60;;;;;;;;;;8350267;28;20024;-60
2022/06/25 23:57:59;;;;;;;0.60;0.60;;;;;;;;;;8350181;28;20045;-60
